Pleasant Valley, Virginia
Current Conditions -  °F | °C
As of 2:55 AM on Saturday 20 Dec 2014 (Local Time) from KVBW Reporting Station
Clear Clear  
Wind Chill: 15°   Ceiling: Unl
Heat Index: 21°   Visibility: 10mi
Dew Point: 18°   Wind: 5mph
Humidity: 89%   Direction: 290°WNW
Pressure: 30.23"   Gusts: NA
Location:  38.38°N, 78.9°W
Report Text: KVBW 200755Z AUTO 29004KT 10SM CLR M06/M08 A3023 RMK AO2 T10611076
Loading
Personal Weather Stations






























Interactive Weather Map New forecast layout! Learn more

10-Day Weather Forecast

Advertisements
Track Severe Weather on mobile